createdAt,value
2022-12-11T00:00:13.893Z,182.69
2022-12-11T00:01:13.919Z,177.24
2022-12-11T00:02:13.906Z,172.28
2022-12-11T00:03:16.159Z,171.57
2022-12-11T00:04:13.860Z,169.99
2022-12-11T00:05:13.870Z,170.16
2022-12-11T00:06:13.872Z,170.86
2022-12-11T00:07:13.831Z,172.10
2022-12-11T00:08:13.990Z,170.69
2022-12-11T00:09:13.856Z,168.44
2022-12-11T00:10:13.833Z,165.09
2022-12-11T00:11:13.807Z,163.63
2022-12-11T00:12:13.778Z,161.41
2022-12-11T00:13:13.780Z,158.33
2022-12-11T00:14:13.792Z,151.96
2022-12-11T00:15:14.005Z,149.10
2022-12-11T00:16:13.889Z,148.97
2022-12-11T00:17:13.756Z,148.84
2022-12-11T00:18:13.745Z,150.73
2022-12-11T00:19:13.721Z,153.23
2022-12-11T00:20:13.739Z,152.24
2022-12-11T00:21:13.725Z,154.36
2022-12-11T00:22:13.708Z,155.96
2022-12-11T00:23:13.743Z,158.48
2022-12-11T00:24:13.693Z,164.60
2022-12-11T00:25:13.791Z,172.10
2022-12-11T00:26:13.664Z,177.24
2022-12-11T00:27:13.667Z,182.89
2022-12-11T00:28:14.266Z,184.71
2022-12-11T00:29:13.648Z,191.87
2022-12-11T00:30:13.611Z,199.85
2022-12-11T00:31:13.640Z,208.51
2022-12-11T00:32:13.667Z,218.84
2022-12-11T00:33:13.606Z,226.89
2022-12-11T00:34:13.578Z,231.55
2022-12-11T00:35:13.882Z,236.93
2022-12-11T00:36:13.579Z,241.65
2022-12-11T00:37:13.593Z,243.27
2022-12-11T00:38:13.574Z,246.76
2022-12-11T00:39:13.542Z,249.97
2022-12-11T00:40:13.518Z,254.05
2022-12-11T00:41:13.520Z,258.67
2022-12-11T00:42:13.512Z,263.26
2022-12-11T00:43:13.569Z,267.57
2022-12-11T00:44:13.514Z,267.13
2022-12-11T00:45:13.574Z,272.47
2022-12-11T00:46:13.545Z,272.25
2022-12-11T00:47:13.465Z,268.45
2022-12-11T00:48:13.474Z,268.01
2022-12-11T00:49:13.478Z,266.69
2022-12-11T00:50:13.431Z,265.18
2022-12-11T00:51:13.439Z,263.89
2022-12-11T00:52:13.412Z,263.26
2022-12-11T00:53:13.403Z,260.95
2022-12-11T00:54:13.444Z,256.44
2022-12-11T00:55:13.413Z,253.85
2022-12-11T00:56:13.373Z,254.05
2022-12-11T00:57:13.367Z,253.46
2022-12-11T00:58:13.391Z,251.51
2022-12-11T00:59:13.344Z,249.40
2022-12-11T01:00:13.424Z,247.70
2022-12-11T01:01:13.399Z,248.07
2022-12-11T01:02:13.355Z,247.88
2022-12-11T01:03:13.393Z,246.39
2022-12-11T01:04:13.306Z,248.83
2022-12-11T01:05:13.407Z,249.21
2022-12-11T01:06:13.314Z,252.09
2022-12-11T01:07:13.282Z,253.46
2022-12-11T01:08:13.348Z,253.46
2022-12-11T01:09:13.260Z,252.09
2022-12-11T01:10:13.279Z,248.64
2022-12-11T01:11:13.273Z,250.16
2022-12-11T01:12:13.226Z,247.88
2022-12-11T01:13:13.217Z,246.95
2022-12-11T01:14:13.216Z,242.19
2022-12-11T01:15:13.432Z,240.41
2022-12-11T01:16:13.256Z,239.53
2022-12-11T01:17:13.184Z,248.07
2022-12-11T01:18:13.194Z,251.12
2022-12-11T01:19:13.168Z,249.59
2022-12-11T01:20:13.179Z,239.18
2022-12-11T01:21:13.144Z,229.28
2022-12-11T01:22:13.134Z,221.36
2022-12-11T01:23:13.208Z,215.52
2022-12-11T01:24:13.131Z,208.78
2022-12-11T01:25:13.207Z,202.07
2022-12-11T01:26:13.124Z,195.07
2022-12-11T01:27:13.096Z,188.77
2022-12-11T01:28:13.110Z,185.13
2022-12-11T01:29:13.076Z,181.89
2022-12-11T01:30:13.088Z,175.37
2022-12-11T01:31:13.083Z,172.10
2022-12-11T01:32:13.053Z,169.47
2022-12-11T01:33:13.101Z,164.93
2022-12-11T01:34:13.026Z,163.63
2022-12-11T01:35:13.357Z,160.47
2022-12-11T01:36:13.020Z,158.79
2022-12-11T01:37:13.036Z,158.33
2022-12-11T01:38:12.994Z,157.88
2022-12-11T01:39:12.984Z,159.24
2022-12-11T01:40:12.971Z,158.33
2022-12-11T01:41:12.996Z,158.48
2022-12-11T01:42:12.956Z,157.88
2022-12-11T01:43:12.939Z,155.23
2022-12-11T01:44:12.935Z,152.94
2022-12-11T01:45:13.082Z,153.08
2022-12-11T01:46:13.055Z,151.14
2022-12-11T01:47:12.930Z,148.30
2022-12-11T01:48:12.897Z,145.20
2022-12-11T01:49:12.944Z,143.81
2022-12-11T01:50:12.876Z,145.71
2022-12-11T01:51:12.896Z,148.84
2022-12-11T01:52:12.859Z,152.10
2022-12-11T01:53:12.860Z,157.58
2022-12-11T01:54:12.839Z,158.03
2022-12-11T01:55:12.958Z,161.72
2022-12-11T01:56:12.855Z,163.47
2022-12-11T01:57:12.818Z,164.77
2022-12-11T01:58:12.818Z,166.08
2022-12-11T01:59:12.798Z,165.92
2022-12-11T02:00:12.793Z,166.92
2022-12-11T02:02:30.508Z,145.07
2022-12-11T02:03:31.385Z,144.69
2022-12-11T02:04:31.372Z,143.94
2022-12-11T02:05:31.358Z,141.37
2022-12-11T02:06:31.365Z,140.53
2022-12-11T02:07:31.368Z,139.82
2022-12-11T02:08:31.373Z,141.49
2022-12-11T02:09:31.326Z,143.94
2022-12-11T02:10:31.311Z,145.20
2022-12-11T02:11:31.305Z,146.09
2022-12-11T02:12:31.301Z,147.51
2022-12-11T02:13:31.289Z,151.41
2022-12-11T02:14:31.269Z,154.08
2022-12-11T02:15:31.296Z,155.96
2022-12-11T02:16:31.340Z,159.70
2022-12-11T02:17:31.258Z,162.67
2022-12-11T02:18:31.242Z,167.09
2022-12-11T02:19:31.225Z,171.04
2022-12-11T02:20:31.230Z,171.21
2022-12-11T02:21:31.215Z,177.24
2022-12-11T02:22:31.243Z,179.92
2022-12-11T02:23:31.195Z,183.70
2022-12-11T02:24:31.178Z,184.93
2022-12-11T02:25:31.175Z,185.55
2022-12-11T02:26:31.179Z,186.93
2022-12-11T02:27:31.172Z,191.42
2022-12-11T02:28:31.147Z,193.00
2022-12-11T02:29:31.168Z,194.26
2022-12-11T02:30:31.123Z,196.96
2022-12-11T02:31:31.198Z,199.36
2022-12-11T02:32:31.120Z,201.94
2022-12-11T02:33:31.096Z,204.21
2022-12-11T02:34:31.085Z,207.32
2022-12-11T02:35:31.083Z,210.66
2022-12-11T02:36:31.066Z,211.48
2022-12-11T02:37:31.074Z,208.65
2022-12-11T02:38:31.046Z,201.45
2022-12-11T02:39:31.060Z,197.19
2022-12-11T02:40:31.073Z,194.73
2022-12-11T02:41:31.031Z,188.22
2022-12-11T02:42:31.047Z,181.49
2022-12-11T02:43:31.001Z,177.24
2022-12-11T02:44:31.000Z,175.93
2022-12-11T02:45:31.021Z,178.96
2022-12-11T02:46:31.019Z,182.49
2022-12-11T02:47:31.002Z,184.52
2022-12-11T02:48:30.985Z,184.61
2022-12-11T02:49:30.950Z,188.88
2022-12-11T02:50:30.938Z,193.57
2022-12-11T02:51:30.955Z,196.13
2022-12-11T02:52:30.937Z,197.79
2022-12-11T02:53:30.944Z,200.83
2022-12-11T02:54:30.909Z,201.94
2022-12-11T02:55:30.901Z,203.32
2022-12-11T02:56:30.882Z,201.32
2022-12-11T02:57:30.882Z,207.85
2022-12-11T02:58:30.860Z,213.14
2022-12-11T02:59:30.870Z,214.25
2022-12-11T03:00:30.857Z,209.05
2022-12-11T03:01:30.906Z,207.85
2022-12-11T03:02:30.917Z,206.54
2022-12-11T03:03:30.833Z,208.12
2022-12-11T03:04:30.833Z,213.14
2022-12-11T03:05:30.799Z,216.67
2022-12-11T03:06:30.798Z,216.67
2022-12-11T03:07:30.816Z,216.09
2022-12-11T03:08:30.840Z,215.38
2022-12-11T03:09:30.761Z,209.05
2022-12-11T03:10:30.775Z,206.15
2022-12-11T03:11:30.743Z,200.70
2022-12-11T03:12:30.734Z,197.79
2022-12-11T03:13:30.804Z,197.79
2022-12-11T03:14:30.735Z,197.31
2022-12-11T03:15:30.706Z,198.99
2022-12-11T03:16:30.771Z,197.67
2022-12-11T03:17:30.706Z,198.03
2022-12-11T03:18:30.694Z,195.07
2022-12-11T03:19:30.669Z,194.96
2022-12-11T03:20:30.673Z,194.38
2022-12-11T03:21:30.657Z,192.21
2022-12-11T03:22:30.638Z,191.64
2022-12-11T03:23:30.657Z,189.64
2022-12-11T03:24:30.621Z,187.47
2022-12-11T03:25:30.622Z,185.76
2022-12-11T03:26:30.607Z,184.93
2022-12-11T03:27:30.615Z,183.30
2022-12-11T03:28:30.581Z,184.11
2022-12-11T03:29:30.591Z,184.11
2022-12-11T03:30:30.681Z,182.89
2022-12-11T03:31:30.624Z,182.89
2022-12-11T03:32:30.577Z,184.72
2022-12-11T03:33:30.565Z,185.55
2022-12-11T03:34:30.524Z,185.03
2022-12-11T03:35:30.548Z,189.20
2022-12-11T03:36:30.505Z,195.19
2022-12-11T03:37:30.546Z,202.19
2022-12-11T03:38:30.503Z,205.63
2022-12-11T03:39:30.512Z,211.76
2022-12-11T03:40:30.476Z,215.38
2022-12-11T03:41:30.482Z,219.58
2022-12-11T03:42:30.451Z,226.27
2022-12-11T03:43:30.458Z,227.68
2022-12-11T03:44:30.459Z,230.25
2022-12-11T03:45:30.455Z,235.90
2022-12-11T03:46:30.468Z,248.64
2022-12-11T03:47:30.418Z,254.05
2022-12-11T03:48:30.427Z,265.39
2022-12-11T03:49:30.436Z,280.42
2022-12-11T03:50:30.385Z,291.42
2022-12-11T03:51:30.373Z,298.61
2022-12-11T03:52:30.362Z,303.04
2022-12-11T03:53:30.360Z,300.81
2022-12-11T03:54:30.345Z,298.61
2022-12-11T03:55:30.352Z,290.90
2022-12-11T03:56:30.385Z,279.22
2022-12-11T03:57:30.322Z,271.12
2022-12-11T03:58:30.331Z,263.89
2022-12-11T03:59:30.293Z,255.44
2022-12-11T04:00:30.291Z,252.29
2022-12-11T04:01:30.367Z,251.70
2022-12-11T04:02:30.265Z,253.66
2022-12-11T04:03:30.269Z,253.46
2022-12-11T04:04:30.359Z,254.64
2022-12-11T04:05:30.260Z,263.05
2022-12-11T04:06:30.258Z,270.67
2022-12-11T04:07:30.255Z,276.16
2022-12-11T04:08:30.258Z,275.46
2022-12-11T04:09:30.219Z,268.45
2022-12-11T04:10:30.228Z,262.83
2022-12-11T04:11:30.214Z,256.04
2022-12-11T04:12:30.185Z,249.78
2022-12-11T04:13:30.221Z,252.09
2022-12-11T04:14:30.185Z,247.32
2022-12-11T04:15:30.145Z,236.93
2022-12-11T04:16:30.193Z,228.80
2022-12-11T04:17:30.136Z,216.67
2022-12-11T04:18:30.145Z,227.37
2022-12-11T04:19:30.124Z,239.18
2022-12-11T04:20:30.134Z,256.64
2022-12-11T04:21:32.854Z,277.56
2022-12-11T04:22:30.108Z,290.64
2022-12-11T04:23:30.098Z,299.43
2022-12-11T04:24:30.057Z,298.34
2022-12-11T04:25:30.108Z,294.84
2022-12-11T04:26:30.069Z,293.78
2022-12-11T04:27:30.041Z,286.57
2022-12-11T04:28:30.018Z,284.08
2022-12-11T04:29:30.021Z,283.09
2022-12-11T04:30:34.130Z,285.07
2022-12-11T04:31:30.141Z,291.42
2022-12-11T04:32:29.998Z,298.88
2022-12-11T04:33:30.008Z,307.89
2022-12-11T04:34:29.984Z,311.41
2022-12-11T04:35:29.980Z,312.00
2022-12-11T04:36:29.984Z,313.50
2022-12-11T04:37:29.941Z,315.31
2022-12-11T04:38:29.943Z,316.84
2022-12-11T04:39:29.940Z,307.89
2022-12-11T04:40:29.917Z,300.53
2022-12-11T04:41:29.935Z,290.13
2022-12-11T04:42:30.012Z,281.14
2022-12-11T04:43:29.892Z,275.92
2022-12-11T04:44:29.885Z,273.39
2022-12-11T04:45:29.893Z,274.07
2022-12-11T04:46:29.922Z,277.56
2022-12-11T04:47:29.873Z,276.62
2022-12-11T04:48:29.867Z,278.27
2022-12-11T04:49:29.858Z,277.33
2022-12-11T04:50:29.821Z,273.16
2022-12-11T04:51:29.826Z,266.04
2022-12-11T04:52:28.801Z,263.89
2022-12-11T04:53:29.798Z,260.53
2022-12-11T04:54:29.786Z,256.44
2022-12-11T04:55:29.795Z,254.25
2022-12-11T04:56:29.784Z,249.59
2022-12-11T04:57:29.766Z,244.55
2022-12-11T04:58:29.764Z,237.10
2022-12-11T04:59:29.753Z,231.39
2022-12-11T05:00:29.761Z,227.84
2022-12-11T05:01:29.879Z,225.33
2022-12-11T05:02:29.793Z,226.89
2022-12-11T05:03:29.718Z,226.58
2022-12-11T05:04:29.699Z,226.58
2022-12-11T05:05:29.677Z,230.25
2022-12-11T05:06:29.689Z,233.04
2022-12-11T05:07:29.681Z,236.58
2022-12-11T05:08:29.680Z,240.23
2022-12-11T05:09:29.639Z,240.76
2022-12-11T05:10:29.646Z,238.65
2022-12-11T05:11:29.660Z,241.65
2022-12-11T05:12:29.640Z,245.65
2022-12-11T05:13:29.671Z,245.65
2022-12-11T05:14:29.596Z,246.58
2022-12-11T05:15:29.616Z,247.14
2022-12-11T05:16:29.642Z,245.28
2022-12-11T05:17:29.595Z,246.95
2022-12-11T05:18:29.563Z,244.91
2022-12-11T05:19:29.553Z,241.65
2022-12-11T05:20:29.553Z,235.39
2022-12-11T05:21:34.818Z,233.87
2022-12-11T05:22:29.535Z,231.72
2022-12-11T05:23:29.508Z,227.05
2022-12-11T05:24:29.534Z,223.48
2022-12-11T05:25:29.509Z,218.84
2022-12-11T05:26:29.491Z,215.67
2022-12-11T05:27:29.472Z,210.80
2022-12-11T05:28:29.480Z,207.45
2022-12-11T05:29:29.496Z,204.85
2022-12-11T05:30:29.496Z,201.82
2022-12-11T05:31:29.559Z,200.58
2022-12-11T05:32:29.440Z,198.39
2022-12-11T05:33:29.463Z,197.67
2022-12-11T05:34:29.418Z,193.57
2022-12-11T05:35:29.420Z,193.69
2022-12-11T05:36:29.410Z,192.55
2022-12-11T05:37:29.395Z,193.23
2022-12-11T05:38:29.439Z,194.84
2022-12-11T05:39:29.379Z,194.96
2022-12-11T05:40:29.401Z,198.75
2022-12-11T05:41:29.355Z,199.36
2022-12-11T05:42:29.398Z,199.24
2022-12-11T05:43:29.371Z,200.70
2022-12-11T05:44:29.329Z,202.32
2022-12-11T05:45:29.317Z,202.19
2022-12-11T05:46:29.355Z,202.32
2022-12-11T05:47:29.311Z,201.45
2022-12-11T05:48:29.293Z,201.94
2022-12-11T05:49:31.181Z,203.07
2022-12-11T05:50:29.269Z,204.21
2022-12-11T05:51:29.273Z,207.06
2022-12-11T05:52:29.249Z,210.12
2022-12-11T05:53:29.247Z,213.14
2022-12-11T05:54:29.268Z,218.55
2022-12-11T05:55:29.214Z,225.02
2022-12-11T05:56:29.212Z,230.57
2022-12-11T05:57:29.211Z,238.83
2022-12-11T05:58:29.225Z,246.39
2022-12-11T05:59:29.209Z,254.64
2022-12-11T06:00:34.382Z,263.05
2022-12-11T06:01:29.178Z,271.57
2022-12-11T06:02:29.274Z,278.51
2022-12-11T06:03:29.187Z,288.08
2022-12-11T06:04:29.160Z,296.44
2022-12-11T06:05:29.245Z,303.88
2022-12-11T06:06:29.136Z,314.40
2022-12-11T06:07:29.101Z,320.57
2022-12-11T06:08:29.118Z,325.68
2022-12-11T06:09:29.099Z,333.32
2022-12-11T06:10:29.108Z,346.39
2022-12-11T06:11:29.069Z,363.33
2022-12-11T06:12:29.060Z,386.47
2022-12-11T06:13:29.113Z,408.57
2022-12-11T06:14:29.046Z,433.92
2022-12-11T06:15:29.054Z,461.02
2022-12-11T06:16:29.119Z,489.20
2022-12-11T06:17:29.042Z,505.20
2022-12-11T06:18:29.005Z,531.04
2022-12-11T06:19:34.995Z,556.39
2022-12-11T06:20:29.053Z,582.24
2022-12-11T06:21:28.985Z,597.96
2022-12-11T06:22:28.980Z,611.73
2022-12-11T06:23:28.971Z,621.46
2022-12-11T06:24:28.949Z,641.25
2022-12-11T06:25:28.899Z,654.52
2022-12-11T06:26:28.944Z,669.02
2022-12-11T06:27:28.949Z,670.37
2022-12-11T06:28:28.932Z,667.00
2022-12-11T06:29:28.866Z,653.87
2022-12-11T06:30:39.054Z,656.46
2022-12-11T06:31:28.915Z,646.24
2022-12-11T06:32:28.895Z,639.40
2022-12-11T06:33:28.813Z,643.74
2022-12-11T06:34:28.806Z,650.03
2022-12-11T06:35:28.847Z,650.67
2022-12-11T06:36:28.787Z,646.87
2022-12-11T06:37:28.781Z,636.95
2022-12-11T06:38:28.766Z,630.90
2022-12-11T06:39:28.786Z,629.70
2022-12-11T06:40:28.760Z,627.92
2022-12-11T06:41:28.752Z,629.70
2022-12-11T06:42:28.766Z,628.51
2022-12-11T06:43:28.721Z,627.32
2022-12-11T06:44:28.718Z,628.51
2022-12-11T06:45:28.776Z,633.91
2022-12-11T06:46:28.818Z,635.73
2022-12-11T06:47:28.714Z,639.40
2022-12-11T06:48:28.680Z,640.02
2022-12-11T06:49:28.689Z,633.30
2022-12-11T06:50:28.661Z,638.17
2022-12-11T06:51:28.665Z,633.30
2022-12-11T06:52:28.676Z,638.17
2022-12-11T06:53:28.625Z,619.14
2022-12-11T06:54:28.622Z,613.99
2022-12-11T06:55:28.635Z,593.69
2022-12-11T06:56:28.612Z,581.22
2022-12-11T06:57:28.613Z,562.04
2022-12-11T06:58:28.594Z,540.11
2022-12-11T06:59:28.606Z,517.40
2022-12-11T07:00:28.584Z,497.26
2022-12-11T07:01:28.650Z,482.10
2022-12-11T07:02:28.640Z,462.63
2022-12-11T07:03:28.548Z,437.35
2022-12-11T07:04:28.535Z,418.61
2022-12-11T07:05:28.553Z,410.08
2022-12-11T07:06:28.536Z,406.32
2022-12-11T07:07:28.527Z,398.76
2022-12-11T07:08:28.490Z,388.05
2022-12-11T07:09:28.486Z,378.91
2022-12-11T07:10:28.493Z,364.54
2022-12-11T07:11:28.485Z,353.12
2022-12-11T07:12:28.457Z,344.20
2022-12-11T07:13:28.463Z,334.68
2022-12-11T07:14:28.459Z,322.79
2022-12-11T07:15:28.424Z,314.71
2022-12-11T07:16:28.474Z,303.32
2022-12-11T07:17:28.417Z,295.10
2022-12-11T07:18:28.415Z,286.07
2022-12-11T07:19:28.427Z,276.86
2022-12-11T07:20:28.459Z,268.01
2022-12-11T07:21:28.429Z,255.24
2022-12-11T07:22:28.375Z,248.07
2022-12-11T07:23:28.357Z,240.59
2022-12-11T07:24:28.363Z,236.07
2022-12-11T07:25:28.336Z,232.54
2022-12-11T07:26:28.382Z,233.04
2022-12-11T07:27:28.320Z,237.10
2022-12-11T07:28:28.313Z,242.37
2022-12-11T07:29:28.321Z,250.35
2022-12-11T07:30:28.993Z,256.24
2022-12-11T07:31:28.322Z,266.69
2022-12-11T07:32:28.448Z,276.39
2022-12-11T07:33:28.314Z,291.16
2022-12-11T07:34:28.283Z,307.89
2022-12-11T07:35:28.286Z,319.32
2022-12-11T07:36:28.269Z,323.75
2022-12-11T07:37:28.225Z,321.52
2022-12-11T07:38:28.247Z,317.46
2022-12-11T07:39:28.327Z,306.45
2022-12-11T07:40:28.224Z,300.53
2022-12-11T07:41:28.243Z,287.07
2022-12-11T07:42:28.191Z,279.94
2022-12-11T07:43:28.227Z,273.84
2022-12-11T07:44:28.161Z,270.00
2022-12-11T07:45:28.280Z,262.62
2022-12-11T07:46:28.164Z,258.88
2022-12-11T07:47:28.178Z,253.66
2022-12-11T07:48:28.141Z,249.78
2022-12-11T07:49:28.124Z,245.46
2022-12-11T07:50:28.116Z,245.10
2022-12-11T07:51:28.274Z,246.39
2022-12-11T07:52:28.123Z,247.51
2022-12-11T07:53:28.168Z,247.70
2022-12-11T07:54:28.074Z,248.07
2022-12-11T07:55:28.081Z,247.32
2022-12-11T07:56:28.064Z,246.76
2022-12-11T07:57:28.052Z,246.95
2022-12-11T07:58:28.053Z,246.76
2022-12-11T07:59:28.033Z,249.02
2022-12-11T08:00:28.065Z,249.40
2022-12-11T08:01:28.095Z,253.46
2022-12-11T08:02:31.340Z,259.70
2022-12-11T08:03:27.993Z,262.83
2022-12-11T08:04:27.989Z,266.48
2022-12-11T08:05:27.975Z,267.35
2022-12-11T08:06:28.040Z,270.00
2022-12-11T08:07:27.991Z,270.89
2022-12-11T08:08:27.973Z,269.55
2022-12-11T08:09:28.031Z,266.48
2022-12-11T08:10:27.921Z,268.23
2022-12-11T08:11:27.914Z,273.84
2022-12-11T08:12:28.099Z,282.36
2022-12-11T08:13:27.995Z,285.32
2022-12-11T08:14:27.933Z,292.99
2022-12-11T08:15:27.930Z,299.98
2022-12-11T08:16:27.934Z,307.31
2022-12-11T08:17:30.956Z,311.41
2022-12-11T08:18:27.861Z,314.10
2022-12-11T08:19:27.884Z,317.77
2022-12-11T08:20:27.834Z,324.39
2022-12-11T08:21:27.825Z,332.64
2022-12-11T08:22:27.867Z,325.68
2022-12-11T08:23:27.803Z,336.41
2022-12-11T08:24:27.801Z,350.47
2022-12-11T08:25:27.854Z,362.92
2022-12-11T08:26:27.776Z,372.43
2022-12-11T08:27:27.775Z,382.68
2022-12-11T08:28:27.798Z,392.86
2022-12-11T08:29:27.748Z,396.38
2022-12-11T08:30:27.796Z,406.57
2022-12-11T08:31:27.777Z,420.46
2022-12-11T08:32:27.721Z,435.06
2022-12-11T08:33:27.717Z,447.36
2022-12-11T08:34:27.773Z,460.70
2022-12-11T08:35:27.693Z,458.16
2022-12-11T08:36:27.713Z,458.48
2022-12-11T08:37:27.671Z,461.02
2022-12-11T08:38:27.685Z,456.27
2022-12-11T08:39:27.668Z,450.40
2022-12-11T08:40:27.648Z,445.86
2022-12-11T08:41:27.744Z,444.07
2022-12-11T08:42:27.630Z,441.12
2022-12-11T08:43:27.638Z,440.25
2022-12-11T08:44:27.661Z,445.56
2022-12-11T08:45:27.598Z,455.96
2022-12-11T08:46:27.643Z,451.01
2022-12-11T08:47:27.773Z,447.67
2022-12-11T08:48:27.572Z,446.16
2022-12-11T08:49:32.693Z,451.01
2022-12-11T08:50:27.562Z,462.31
2022-12-11T08:51:27.560Z,476.23
2022-12-11T08:52:27.551Z,488.48
2022-12-11T08:53:27.553Z,500.63
2022-12-11T08:54:27.520Z,513.79
2022-12-11T08:55:27.551Z,517.80
2022-12-11T08:56:27.532Z,531.04
2022-12-11T08:57:27.491Z,537.92
2022-12-11T08:58:27.481Z,546.33
2022-12-11T08:59:27.506Z,547.23
2022-12-11T09:00:27.462Z,553.61
2022-12-11T09:01:27.541Z,564.43
2022-12-11T09:02:27.614Z,579.70
2022-12-11T09:03:27.452Z,594.22
2022-12-11T09:04:27.442Z,616.27
2022-12-11T09:05:27.439Z,625.55
2022-12-11T09:06:27.436Z,635.73
2022-12-11T09:07:27.405Z,633.91
2022-12-11T09:08:27.483Z,641.25
2022-12-11T09:09:27.383Z,641.25
2022-12-11T09:10:27.421Z,637.56
2022-12-11T09:11:27.392Z,626.73
2022-12-11T09:12:27.346Z,629.70
2022-12-11T09:13:27.345Z,618.56
2022-12-11T09:14:27.385Z,627.32
2022-12-11T09:15:27.337Z,649.40
2022-12-11T09:16:27.315Z,682.07
2022-12-11T09:17:27.328Z,661.69
2022-12-11T09:18:27.294Z,661.03
2022-12-11T09:19:32.068Z,669.69
2022-12-11T09:20:27.310Z,674.45
2022-12-11T09:21:27.274Z,678.59
2022-12-11T09:22:27.258Z,678.59
2022-12-11T09:23:27.255Z,736.51
2022-12-11T09:24:27.269Z,782.35
2022-12-11T09:25:27.233Z,822.51
2022-12-11T09:26:27.244Z,844.44
2022-12-11T09:27:27.249Z,862.52
2022-12-11T09:28:27.202Z,864.76
2022-12-11T09:29:27.202Z,853.66
2022-12-11T09:30:27.195Z,858.06
2022-12-11T09:31:27.176Z,847.67
2022-12-11T09:32:27.194Z,868.71
2022-12-11T09:33:27.170Z,857.51
2022-12-11T09:34:29.402Z,865.32
2022-12-11T09:35:27.161Z,863.08
2022-12-11T09:36:27.133Z,855.85
2022-12-11T09:37:27.140Z,868.71
2022-12-11T09:38:27.108Z,899.26
2022-12-11T09:39:27.141Z,960.98
2022-12-11T09:40:27.087Z,985.91
2022-12-11T09:41:27.100Z,972.22
2022-12-11T09:42:27.167Z,976.51
2022-12-11T09:43:27.068Z,938.60
2022-12-11T09:44:27.082Z,880.21
2022-12-11T09:45:27.049Z,869.28
2022-12-11T09:46:32.136Z,858.06
2022-12-11T09:47:27.073Z,848.21
2022-12-11T09:48:27.066Z,832.29
2022-12-11T09:49:27.053Z,810.48
2022-12-11T09:50:27.001Z,813.95
2022-12-11T09:51:27.031Z,789.32
2022-12-11T09:52:27.014Z,776.87
2022-12-11T09:53:29.750Z,777.78
2022-12-11T09:54:26.994Z,786.52
2022-12-11T09:55:26.963Z,819.47
2022-12-11T09:56:26.940Z,852.56
2022-12-11T09:57:26.951Z,888.44
2022-12-11T09:58:26.945Z,943.26
2022-12-11T09:59:26.938Z,961.68
2022-12-11T10:00:26.903Z,964.47
2022-12-11T10:01:26.978Z,1011.41
2022-12-11T10:02:27.020Z,1011.41
2022-12-11T10:03:26.882Z,1037.44
2022-12-11T10:04:26.877Z,1084.83
2022-12-11T10:05:26.877Z,1119.53
2022-12-11T10:06:26.848Z,1153.51
2022-12-11T10:07:26.870Z,1187.50
2022-12-11T10:08:26.941Z,1221.30
2022-12-11T10:09:26.816Z,1229.20
2022-12-11T10:10:26.836Z,1247.65
2022-12-11T10:11:26.816Z,1261.86
2022-12-11T10:12:26.834Z,1314.23
2022-12-11T10:13:26.819Z,1386.86
2022-12-11T10:14:26.869Z,1417.91
2022-12-11T10:15:26.807Z,1437.84
2022-12-11T10:16:26.793Z,1469.61
2022-12-11T10:17:26.755Z,1476.14
2022-12-11T10:18:26.729Z,1507.94
2022-12-11T10:19:26.813Z,1496.06
2022-12-11T10:20:26.779Z,1486.03
2022-12-11T10:21:26.726Z,1479.42
2022-12-11T10:22:26.756Z,1506.23
2022-12-11T10:23:26.705Z,1507.94
2022-12-11T10:24:57.855Z,1530.49
2022-12-11T10:25:27.011Z,1539.35
2022-12-11T10:26:26.748Z,1518.27
2022-12-11T10:27:26.666Z,1528.73
2022-12-11T10:28:26.658Z,1530.49
2022-12-11T10:29:26.628Z,1573.03
2022-12-11T10:30:30.403Z,1606.28
2022-12-11T10:31:26.657Z,1607.25
2022-12-11T10:32:26.617Z,1596.64
2022-12-11T10:33:26.614Z,1576.76
2022-12-11T10:34:26.578Z,1603.38
2022-12-11T10:35:26.568Z,1615.06
2022-12-11T10:36:26.550Z,1675.06
2022-12-11T10:37:26.554Z,1711.71
2022-12-11T10:38:26.585Z,1716.13
2022-12-11T10:39:26.525Z,1683.54
2022-12-11T10:40:26.510Z,1637.93
2022-12-11T10:41:26.516Z,1625.92
2022-12-11T10:42:26.596Z,1638.94
2022-12-11T10:43:26.494Z,1613.10
2022-12-11T10:44:26.490Z,1657.32
2022-12-11T10:45:26.501Z,1696.43
2022-12-11T10:46:26.501Z,1677.18
2022-12-11T10:47:26.459Z,1669.81
2022-12-11T10:48:26.465Z,1629.90
2022-12-11T10:49:26.492Z,1629.90
2022-12-11T10:50:26.415Z,1622.94
2022-12-11T10:51:26.419Z,1585.22
2022-12-11T10:52:26.488Z,1544.71
2022-12-11T10:53:26.410Z,1496.06
2022-12-11T10:54:26.373Z,1402.95
2022-12-11T10:55:26.376Z,1319.44
2022-12-11T10:56:26.372Z,1316.83
2022-12-11T10:57:26.357Z,1354.38
2022-12-11T10:58:26.360Z,1375.39
2022-12-11T10:59:26.355Z,1395.59
2022-12-11T11:00:26.330Z,1383.97
2022-12-11T11:01:26.334Z,1375.39
2022-12-11T11:02:26.418Z,1407.41
2022-12-11T11:03:26.293Z,1427.04
2022-12-11T11:04:26.333Z,1417.91
2022-12-11T11:05:26.271Z,1386.86
2022-12-11T11:06:26.273Z,1394.13
2022-12-11T11:07:26.319Z,1416.40
2022-12-11T11:08:26.364Z,1408.90
2022-12-11T11:09:26.307Z,1359.92
2022-12-11T11:10:26.299Z,1318.14
2022-12-11T11:11:26.211Z,1332.67
2022-12-11T11:12:26.277Z,1343.43
2022-12-11T11:13:26.247Z,1330.00
2022-12-11T11:14:26.189Z,1330.00
2022-12-11T11:15:26.196Z,1282.55
2022-12-11T11:16:26.301Z,1217.95
2022-12-11T11:17:29.592Z,1143.59
2022-12-11T11:18:26.146Z,1096.45
2022-12-11T11:19:26.208Z,1064.00
2022-12-11T11:20:26.125Z,999.25
2022-12-11T11:21:26.133Z,947.97
2022-12-11T11:22:26.126Z,950.00
2022-12-11T11:23:26.095Z,955.46
2022-12-11T11:24:26.085Z,972.22
2022-12-11T11:25:26.124Z,1009.10
2022-12-11T11:26:43.497Z,1041.50
2022-12-11T11:27:26.068Z,1069.99
2022-12-11T11:28:26.080Z,1064.00
2022-12-11T11:29:26.035Z,1033.41
2022-12-11T11:30:26.058Z,1039.87
2022-12-11T11:31:26.128Z,1067.42
2022-12-11T11:32:26.015Z,1069.99
2022-12-11T11:33:26.029Z,1079.55
2022-12-11T11:34:25.980Z,1060.61
2022-12-11T11:35:26.011Z,1083.94
2022-12-11T11:36:25.963Z,1083.94
2022-12-11T11:37:25.957Z,1099.17
2022-12-11T11:38:25.949Z,1106.49
2022-12-11T11:39:25.977Z,1111.11
2022-12-11T11:40:25.923Z,1151.52
2022-12-11T11:41:25.915Z,1159.55
2022-12-11T11:42:26.028Z,1098.27
2022-12-11T11:43:25.895Z,1083.94
2022-12-11T11:44:25.940Z,1123.31
2022-12-11T11:45:25.942Z,1139.67
2022-12-11T11:46:25.894Z,1131.92
2022-12-11T11:47:25.865Z,1092.85
2022-12-11T11:48:25.861Z,1032.61
2022-12-11T11:49:25.882Z,1031.81
2022-12-11T11:50:25.824Z,1048.90
2022-12-11T11:51:25.849Z,1068.27
2022-12-11T11:52:25.813Z,1091.06
2022-12-11T11:53:25.803Z,1117.65
2022-12-11T11:54:25.795Z,1169.74
2022-12-11T11:55:25.807Z,1172.84
2022-12-11T11:56:25.803Z,1176.99
2022-12-11T11:57:25.814Z,1204.71
2022-12-11T11:58:25.744Z,1163.60
2022-12-11T11:59:25.741Z,1074.31
2022-12-11T12:00:30.372Z,1189.62
2022-12-11T12:01:25.771Z,1233.77
2022-12-11T12:02:25.732Z,1459.93
2022-12-11T12:03:25.743Z,1689.96
2022-12-11T12:04:25.696Z,1528.73
2022-12-11T12:05:25.700Z,1436.29
2022-12-11T12:06:25.710Z,1328.67
2022-12-11T12:07:25.693Z,1269.08
2022-12-11T12:08:25.785Z,1244.15
2022-12-11T12:09:25.739Z,1233.77
2022-12-11T12:10:25.644Z,1504.53
2022-12-11T12:11:25.661Z,1696.43
2022-12-11T12:12:29.749Z,1905.44
2022-12-11T12:13:48.669Z,1977.69
2022-12-11T12:15:24.599Z,2362.34
2022-12-11T12:16:51.558Z,2511.80
2022-12-11T12:17:25.639Z,2641.51
2022-12-11T12:18:25.602Z,2782.43
2022-12-11T12:19:25.555Z,2932.75
2022-12-11T12:20:25.529Z,3053.96
2022-12-11T12:21:25.537Z,3122.06
2022-12-11T12:22:25.572Z,3164.78
2022-12-11T12:23:25.506Z,3114.75
2022-12-11T12:24:25.488Z,3105.66
2022-12-11T12:25:25.512Z,3116.58
2022-12-11T12:26:25.514Z,3183.72